sensor_id;sensor_type;location;lat;lon;timestamp;P1;durP1;ratioP1;P2;durP2;ratioP2
10473;SDS011;5284;50.446;7.904;2023-03-04T00:01:11;174.75;;;49.30;;
10473;SDS011;5284;50.446;7.904;2023-03-04T00:06:14;158.80;;;43.72;;
10473;SDS011;5284;50.446;7.904;2023-03-04T00:11:18;179.32;;;50.05;;
10473;SDS011;5284;50.446;7.904;2023-03-04T00:16:21;174.20;;;48.28;;
10473;SDS011;5284;50.446;7.904;2023-03-04T00:21:24;187.98;;;53.03;;
10473;SDS011;5284;50.446;7.904;2023-03-04T00:26:28;178.05;;;48.53;;
10473;SDS011;5284;50.446;7.904;2023-03-04T00:31:31;177.05;;;52.63;;
10473;SDS011;5284;50.446;7.904;2023-03-04T00:36:33;181.07;;;51.58;;
10473;SDS011;5284;50.446;7.904;2023-03-04T00:41:38;176.30;;;54.88;;
10473;SDS011;5284;50.446;7.904;2023-03-04T00:46:41;211.10;;;61.83;;
10473;SDS011;5284;50.446;7.904;2023-03-04T00:51:44;197.55;;;59.47;;
10473;SDS011;5284;50.446;7.904;2023-03-04T00:56:48;190.73;;;59.35;;
10473;SDS011;5284;50.446;7.904;2023-03-04T01:01:51;224.85;;;65.60;;
10473;SDS011;5284;50.446;7.904;2023-03-04T01:06:54;226.75;;;65.38;;
10473;SDS011;5284;50.446;7.904;2023-03-04T01:11:58;229.60;;;66.40;;
10473;SDS011;5284;50.446;7.904;2023-03-04T01:17:01;209.98;;;62.33;;
10473;SDS011;5284;50.446;7.904;2023-03-04T01:22:04;216.98;;;66.22;;
10473;SDS011;5284;50.446;7.904;2023-03-04T01:27:08;219.90;;;64.35;;
10473;SDS011;5284;50.446;7.904;2023-03-04T01:32:11;218.77;;;66.35;;
10473;SDS011;5284;50.446;7.904;2023-03-04T01:37:15;228.90;;;65.93;;
10473;SDS011;5284;50.446;7.904;2023-03-04T01:42:22;214.32;;;67.65;;
10473;SDS011;5284;50.446;7.904;2023-03-04T01:47:35;210.45;;;63.97;;
10473;SDS011;5284;50.446;7.904;2023-03-04T01:52:38;211.40;;;62.00;;
10473;SDS011;5284;50.446;7.904;2023-03-04T01:57:46;221.45;;;59.92;;
10473;SDS011;5284;50.446;7.904;2023-03-04T02:02:51;201.88;;;59.97;;
10473;SDS011;5284;50.446;7.904;2023-03-04T02:13:03;200.68;;;64.32;;
10473;SDS011;5284;50.446;7.904;2023-03-04T02:18:11;211.13;;;62.42;;
10473;SDS011;5284;50.446;7.904;2023-03-04T02:23:18;206.68;;;64.70;;
10473;SDS011;5284;50.446;7.904;2023-03-04T02:28:29;196.65;;;61.00;;
10473;SDS011;5284;50.446;7.904;2023-03-04T02:33:31;187.90;;;61.10;;
10473;SDS011;5284;50.446;7.904;2023-03-04T02:38:34;188.77;;;57.95;;
10473;SDS011;5284;50.446;7.904;2023-03-04T02:43:40;192.82;;;58.45;;
10473;SDS011;5284;50.446;7.904;2023-03-04T02:48:44;201.70;;;59.35;;
10473;SDS011;5284;50.446;7.904;2023-03-04T02:53:47;198.10;;;60.03;;
10473;SDS011;5284;50.446;7.904;2023-03-04T02:58:51;191.65;;;60.72;;
10473;SDS011;5284;50.446;7.904;2023-03-04T03:03:54;187.48;;;59.20;;
10473;SDS011;5284;50.446;7.904;2023-03-04T03:08:58;174.43;;;59.22;;
10473;SDS011;5284;50.446;7.904;2023-03-04T03:14:06;177.40;;;58.90;;
10473;SDS011;5284;50.446;7.904;2023-03-04T03:24:13;179.82;;;55.50;;
10473;SDS011;5284;50.446;7.904;2023-03-04T03:29:17;170.50;;;57.17;;
10473;SDS011;5284;50.446;7.904;2023-03-04T03:34:20;171.35;;;54.35;;
10473;SDS011;5284;50.446;7.904;2023-03-04T03:39:23;168.73;;;56.50;;
10473;SDS011;5284;50.446;7.904;2023-03-04T03:44:28;149.75;;;49.85;;
10473;SDS011;5284;50.446;7.904;2023-03-04T03:49:31;155.90;;;52.63;;
10473;SDS011;5284;50.446;7.904;2023-03-04T03:54:34;160.45;;;52.58;;
10473;SDS011;5284;50.446;7.904;2023-03-04T03:59:38;140.73;;;46.88;;
10473;SDS011;5284;50.446;7.904;2023-03-04T04:04:41;155.32;;;49.17;;
10473;SDS011;5284;50.446;7.904;2023-03-04T04:09:44;137.23;;;45.17;;
10473;SDS011;5284;50.446;7.904;2023-03-04T04:14:48;134.20;;;47.97;;
10473;SDS011;5284;50.446;7.904;2023-03-04T04:19:51;129.25;;;45.10;;
10473;SDS011;5284;50.446;7.904;2023-03-04T04:24:53;143.15;;;45.50;;
10473;SDS011;5284;50.446;7.904;2023-03-04T04:29:58;125.10;;;46.38;;
10473;SDS011;5284;50.446;7.904;2023-03-04T04:35:01;120.78;;;44.03;;
10473;SDS011;5284;50.446;7.904;2023-03-04T04:40:04;120.93;;;43.15;;
10473;SDS011;5284;50.446;7.904;2023-03-04T04:45:09;112.30;;;41.58;;
10473;SDS011;5284;50.446;7.904;2023-03-04T04:50:12;128.00;;;41.03;;
10473;SDS011;5284;50.446;7.904;2023-03-04T04:55:15;119.22;;;39.03;;
10473;SDS011;5284;50.446;7.904;2023-03-04T05:00:20;119.30;;;40.08;;
10473;SDS011;5284;50.446;7.904;2023-03-04T05:05:24;133.68;;;41.67;;
10473;SDS011;5284;50.446;7.904;2023-03-04T05:10:27;121.07;;;39.00;;
10473;SDS011;5284;50.446;7.904;2023-03-04T05:15:31;121.78;;;40.42;;
10473;SDS011;5284;50.446;7.904;2023-03-04T05:20:34;121.15;;;43.35;;
10473;SDS011;5284;50.446;7.904;2023-03-04T05:25:37;131.85;;;40.65;;
10473;SDS011;5284;50.446;7.904;2023-03-04T05:30:42;114.05;;;39.80;;
10473;SDS011;5284;50.446;7.904;2023-03-04T05:35:47;118.47;;;40.13;;
10473;SDS011;5284;50.446;7.904;2023-03-04T05:40:55;122.30;;;43.88;;
10473;SDS011;5284;50.446;7.904;2023-03-04T05:46:01;131.45;;;42.17;;
10473;SDS011;5284;50.446;7.904;2023-03-04T05:51:04;107.72;;;39.78;;
10473;SDS011;5284;50.446;7.904;2023-03-04T05:56:07;128.07;;;43.45;;
10473;SDS011;5284;50.446;7.904;2023-03-04T06:01:12;122.75;;;41.30;;
10473;SDS011;5284;50.446;7.904;2023-03-04T06:06:16;114.35;;;39.80;;
10473;SDS011;5284;50.446;7.904;2023-03-04T06:11:19;122.32;;;39.28;;
10473;SDS011;5284;50.446;7.904;2023-03-04T06:16:23;119.65;;;38.58;;
10473;SDS011;5284;50.446;7.904;2023-03-04T06:21:26;127.95;;;37.45;;
10473;SDS011;5284;50.446;7.904;2023-03-04T06:26:29;103.07;;;34.85;;
10473;SDS011;5284;50.446;7.904;2023-03-04T06:31:34;100.93;;;34.33;;
10473;SDS011;5284;50.446;7.904;2023-03-04T06:36:37;106.45;;;36.20;;
10473;SDS011;5284;50.446;7.904;2023-03-04T06:41:40;111.03;;;35.28;;
10473;SDS011;5284;50.446;7.904;2023-03-04T06:46:44;110.35;;;35.90;;
10473;SDS011;5284;50.446;7.904;2023-03-04T06:51:47;104.18;;;36.08;;
10473;SDS011;5284;50.446;7.904;2023-03-04T06:56:50;97.72;;;31.70;;
10473;SDS011;5284;50.446;7.904;2023-03-04T07:01:54;110.30;;;31.55;;
10473;SDS011;5284;50.446;7.904;2023-03-04T07:06:57;105.60;;;34.08;;
10473;SDS011;5284;50.446;7.904;2023-03-04T07:12:00;87.97;;;27.98;;
10473;SDS011;5284;50.446;7.904;2023-03-04T07:17:04;88.47;;;29.83;;
10473;SDS011;5284;50.446;7.904;2023-03-04T07:22:06;102.60;;;32.33;;
10473;SDS011;5284;50.446;7.904;2023-03-04T07:27:09;87.72;;;27.05;;
10473;SDS011;5284;50.446;7.904;2023-03-04T07:32:16;79.75;;;25.38;;
10473;SDS011;5284;50.446;7.904;2023-03-04T07:37:19;86.50;;;28.80;;
10473;SDS011;5284;50.446;7.904;2023-03-04T07:42:22;78.38;;;27.33;;
10473;SDS011;5284;50.446;7.904;2023-03-04T07:47:34;75.93;;;27.73;;
10473;SDS011;5284;50.446;7.904;2023-03-04T07:52:37;85.75;;;27.42;;
10473;SDS011;5284;50.446;7.904;2023-03-04T07:57:40;76.88;;;24.27;;
10473;SDS011;5284;50.446;7.904;2023-03-04T08:02:45;70.20;;;24.63;;
10473;SDS011;5284;50.446;7.904;2023-03-04T08:07:48;71.60;;;24.25;;
10473;SDS011;5284;50.446;7.904;2023-03-04T08:12:51;58.70;;;19.55;;
10473;SDS011;5284;50.446;7.904;2023-03-04T08:17:55;60.28;;;19.08;;
10473;SDS011;5284;50.446;7.904;2023-03-04T08:22:58;63.63;;;19.25;;
10473;SDS011;5284;50.446;7.904;2023-03-04T08:28:01;47.08;;;14.98;;
10473;SDS011;5284;50.446;7.904;2023-03-04T08:33:06;51.50;;;15.40;;
10473;SDS011;5284;50.446;7.904;2023-03-04T08:38:09;47.20;;;15.07;;
10473;SDS011;5284;50.446;7.904;2023-03-04T08:43:12;50.10;;;14.60;;
10473;SDS011;5284;50.446;7.904;2023-03-04T08:48:16;46.13;;;15.77;;
10473;SDS011;5284;50.446;7.904;2023-03-04T08:53:20;53.40;;;15.68;;
10473;SDS011;5284;50.446;7.904;2023-03-04T08:58:23;43.72;;;15.20;;
10473;SDS011;5284;50.446;7.904;2023-03-04T09:03:27;42.10;;;13.25;;
10473;SDS011;5284;50.446;7.904;2023-03-04T09:08:30;41.78;;;13.05;;
10473;SDS011;5284;50.446;7.904;2023-03-04T09:13:34;54.58;;;14.48;;
10473;SDS011;5284;50.446;7.904;2023-03-04T09:18:39;42.38;;;14.57;;
10473;SDS011;5284;50.446;7.904;2023-03-04T09:23:43;56.42;;;15.90;;
10473;SDS011;5284;50.446;7.904;2023-03-04T09:28:48;47.97;;;18.10;;
10473;SDS011;5284;50.446;7.904;2023-03-04T09:33:53;43.50;;;16.33;;
10473;SDS011;5284;50.446;7.904;2023-03-04T09:44:03;43.55;;;15.20;;
10473;SDS011;5284;50.446;7.904;2023-03-04T09:49:13;54.22;;;14.48;;
10473;SDS011;5284;50.446;7.904;2023-03-04T09:54:21;38.90;;;14.73;;
10473;SDS011;5284;50.446;7.904;2023-03-04T09:59:33;53.20;;;13.70;;
10473;SDS011;5284;50.446;7.904;2023-03-04T10:04:46;45.42;;;12.50;;
10473;SDS011;5284;50.446;7.904;2023-03-04T10:09:52;50.83;;;11.90;;
10473;SDS011;5284;50.446;7.904;2023-03-04T10:15:00;33.55;;;11.75;;
10473;SDS011;5284;50.446;7.904;2023-03-04T10:25:17;40.78;;;13.77;;
10473;SDS011;5284;50.446;7.904;2023-03-04T10:30:25;39.40;;;10.98;;
10473;SDS011;5284;50.446;7.904;2023-03-04T10:35:39;34.20;;;10.93;;
10473;SDS011;5284;50.446;7.904;2023-03-04T10:40:46;40.72;;;11.98;;
10473;SDS011;5284;50.446;7.904;2023-03-04T10:45:51;67.68;;;20.23;;
10473;SDS011;5284;50.446;7.904;2023-03-04T10:51:09;26.33;;;9.20;;
10473;SDS011;5284;50.446;7.904;2023-03-04T11:01:40;25.67;;;8.18;;
10473;SDS011;5284;50.446;7.904;2023-03-04T11:06:44;27.00;;;10.10;;
10473;SDS011;5284;50.446;7.904;2023-03-04T11:11:47;20.92;;;7.95;;
10473;SDS011;5284;50.446;7.904;2023-03-04T11:16:53;25.08;;;7.72;;
10473;SDS011;5284;50.446;7.904;2023-03-04T11:21:59;32.58;;;9.60;;
10473;SDS011;5284;50.446;7.904;2023-03-04T11:27:04;20.58;;;6.10;;
10473;SDS011;5284;50.446;7.904;2023-03-04T11:32:10;20.08;;;6.30;;
10473;SDS011;5284;50.446;7.904;2023-03-04T11:37:23;24.08;;;7.95;;
10473;SDS011;5284;50.446;7.904;2023-03-04T11:42:32;18.27;;;5.68;;
10473;SDS011;5284;50.446;7.904;2023-03-04T11:47:47;20.80;;;6.20;;
10473;SDS011;5284;50.446;7.904;2023-03-04T11:53:03;19.00;;;7.70;;
10473;SDS011;5284;50.446;7.904;2023-03-04T11:58:30;17.65;;;6.47;;
10473;SDS011;5284;50.446;7.904;2023-03-04T12:09:23;30.02;;;9.48;;
10473;SDS011;5284;50.446;7.904;2023-03-04T12:14:38;26.80;;;7.10;;
10473;SDS011;5284;50.446;7.904;2023-03-04T12:19:49;22.95;;;6.95;;
10473;SDS011;5284;50.446;7.904;2023-03-04T12:25:19;17.33;;;6.88;;
10473;SDS011;5284;50.446;7.904;2023-03-04T12:30:33;23.25;;;7.63;;
10473;SDS011;5284;50.446;7.904;2023-03-04T12:35:43;23.45;;;7.80;;
10473;SDS011;5284;50.446;7.904;2023-03-04T12:40:56;22.95;;;8.20;;
10473;SDS011;5284;50.446;7.904;2023-03-04T12:46:06;26.02;;;6.82;;
10473;SDS011;5284;50.446;7.904;2023-03-04T12:51:22;16.33;;;6.53;;
10473;SDS011;5284;50.446;7.904;2023-03-04T12:56:36;27.48;;;7.22;;
10473;SDS011;5284;50.446;7.904;2023-03-04T13:01:45;24.55;;;6.45;;
10473;SDS011;5284;50.446;7.904;2023-03-04T13:06:59;23.42;;;6.80;;
10473;SDS011;5284;50.446;7.904;2023-03-04T13:12:16;21.00;;;7.72;;
10473;SDS011;5284;50.446;7.904;2023-03-04T13:17:36;20.52;;;6.45;;
10473;SDS011;5284;50.446;7.904;2023-03-04T13:22:44;13.57;;;6.50;;
10473;SDS011;5284;50.446;7.904;2023-03-04T13:28:05;22.10;;;8.07;;
10473;SDS011;5284;50.446;7.904;2023-03-04T13:33:44;26.30;;;9.68;;
10473;SDS011;5284;50.446;7.904;2023-03-04T13:38:58;25.23;;;10.93;;
10473;SDS011;5284;50.446;7.904;2023-03-04T13:44:04;23.02;;;10.82;;
10473;SDS011;5284;50.446;7.904;2023-03-04T13:49:23;26.33;;;11.25;;
10473;SDS011;5284;50.446;7.904;2023-03-04T13:54:26;24.15;;;11.25;;
10473;SDS011;5284;50.446;7.904;2023-03-04T13:59:33;22.48;;;10.75;;
10473;SDS011;5284;50.446;7.904;2023-03-04T14:04:43;31.92;;;11.77;;
10473;SDS011;5284;50.446;7.904;2023-03-04T14:09:53;23.45;;;11.90;;
10473;SDS011;5284;50.446;7.904;2023-03-04T14:15:01;25.17;;;11.35;;
10473;SDS011;5284;50.446;7.904;2023-03-04T14:20:20;33.55;;;14.07;;
10473;SDS011;5284;50.446;7.904;2023-03-04T14:25:27;26.50;;;13.75;;
10473;SDS011;5284;50.446;7.904;2023-03-04T14:30:32;26.83;;;11.00;;
10473;SDS011;5284;50.446;7.904;2023-03-04T14:35:45;25.65;;;11.57;;
10473;SDS011;5284;50.446;7.904;2023-03-04T14:40:50;24.48;;;10.77;;
10473;SDS011;5284;50.446;7.904;2023-03-04T14:45:57;21.27;;;9.80;;
10473;SDS011;5284;50.446;7.904;2023-03-04T14:51:04;24.75;;;10.38;;
10473;SDS011;5284;50.446;7.904;2023-03-04T14:56:09;21.95;;;10.50;;
10473;SDS011;5284;50.446;7.904;2023-03-04T15:01:15;24.23;;;11.15;;
10473;SDS011;5284;50.446;7.904;2023-03-04T15:06:21;30.83;;;11.50;;
10473;SDS011;5284;50.446;7.904;2023-03-04T15:11:29;24.27;;;11.13;;
10473;SDS011;5284;50.446;7.904;2023-03-04T15:22:03;24.33;;;10.43;;
10473;SDS011;5284;50.446;7.904;2023-03-04T15:27:09;19.73;;;10.75;;
10473;SDS011;5284;50.446;7.904;2023-03-04T15:32:16;24.92;;;11.57;;
10473;SDS011;5284;50.446;7.904;2023-03-04T15:37:20;21.33;;;11.55;;
10473;SDS011;5284;50.446;7.904;2023-03-04T15:42:24;28.17;;;11.90;;
10473;SDS011;5284;50.446;7.904;2023-03-04T15:47:29;20.80;;;10.38;;
10473;SDS011;5284;50.446;7.904;2023-03-04T15:52:32;24.50;;;10.10;;
10473;SDS011;5284;50.446;7.904;2023-03-04T15:57:36;19.40;;;8.90;;
10473;SDS011;5284;50.446;7.904;2023-03-04T16:02:41;16.55;;;9.32;;
10473;SDS011;5284;50.446;7.904;2023-03-04T16:07:44;21.02;;;9.40;;
10473;SDS011;5284;50.446;7.904;2023-03-04T16:12:49;22.83;;;9.68;;
10473;SDS011;5284;50.446;7.904;2023-03-04T16:17:55;18.38;;;9.85;;
10473;SDS011;5284;50.446;7.904;2023-03-04T16:23:00;20.95;;;9.00;;
10473;SDS011;5284;50.446;7.904;2023-03-04T16:28:03;28.20;;;11.13;;
10473;SDS011;5284;50.446;7.904;2023-03-04T16:33:09;25.55;;;10.80;;
10473;SDS011;5284;50.446;7.904;2023-03-04T16:38:16;28.00;;;11.48;;
10473;SDS011;5284;50.446;7.904;2023-03-04T16:43:26;26.10;;;10.70;;
10473;SDS011;5284;50.446;7.904;2023-03-04T16:48:31;17.77;;;10.43;;
10473;SDS011;5284;50.446;7.904;2023-03-04T16:53:35;21.38;;;10.45;;
10473;SDS011;5284;50.446;7.904;2023-03-04T16:58:39;29.75;;;11.60;;
10473;SDS011;5284;50.446;7.904;2023-03-04T17:03:44;25.58;;;12.38;;
10473;SDS011;5284;50.446;7.904;2023-03-04T17:08:48;25.50;;;12.25;;
10473;SDS011;5284;50.446;7.904;2023-03-04T17:13:51;18.52;;;9.15;;
10473;SDS011;5284;50.446;7.904;2023-03-04T17:18:55;17.40;;;9.43;;
10473;SDS011;5284;50.446;7.904;2023-03-04T17:23:58;21.20;;;10.52;;
10473;SDS011;5284;50.446;7.904;2023-03-04T17:29:01;23.70;;;11.07;;
10473;SDS011;5284;50.446;7.904;2023-03-04T17:34:05;29.80;;;12.73;;
10473;SDS011;5284;50.446;7.904;2023-03-04T17:39:08;23.45;;;11.23;;
10473;SDS011;5284;50.446;7.904;2023-03-04T17:44:12;28.02;;;10.70;;
10473;SDS011;5284;50.446;7.904;2023-03-04T17:49:17;18.63;;;11.35;;
10473;SDS011;5284;50.446;7.904;2023-03-04T17:54:20;32.42;;;11.75;;
10473;SDS011;5284;50.446;7.904;2023-03-04T17:59:23;21.48;;;12.70;;
10473;SDS011;5284;50.446;7.904;2023-03-04T18:04:27;32.38;;;14.15;;
10473;SDS011;5284;50.446;7.904;2023-03-04T18:09:30;24.50;;;15.00;;
10473;SDS011;5284;50.446;7.904;2023-03-04T18:14:33;34.35;;;14.80;;
10473;SDS011;5284;50.446;7.904;2023-03-04T18:19:38;29.35;;;14.50;;
10473;SDS011;5284;50.446;7.904;2023-03-04T18:24:41;35.00;;;18.38;;
10473;SDS011;5284;50.446;7.904;2023-03-04T18:29:44;26.83;;;15.25;;
10473;SDS011;5284;50.446;7.904;2023-03-04T18:34:48;34.63;;;17.05;;
10473;SDS011;5284;50.446;7.904;2023-03-04T18:39:51;27.85;;;15.27;;
10473;SDS011;5284;50.446;7.904;2023-03-04T18:44:54;35.10;;;15.68;;
10473;SDS011;5284;50.446;7.904;2023-03-04T18:49:58;39.90;;;15.85;;
10473;SDS011;5284;50.446;7.904;2023-03-04T18:55:01;61.83;;;27.42;;
10473;SDS011;5284;50.446;7.904;2023-03-04T19:00:06;37.80;;;16.20;;
10473;SDS011;5284;50.446;7.904;2023-03-04T19:05:14;30.35;;;14.77;;
10473;SDS011;5284;50.446;7.904;2023-03-04T19:10:21;36.65;;;14.25;;
10473;SDS011;5284;50.446;7.904;2023-03-04T19:15:25;26.05;;;15.90;;
10473;SDS011;5284;50.446;7.904;2023-03-04T19:20:30;48.55;;;21.17;;
10473;SDS011;5284;50.446;7.904;2023-03-04T19:25:35;47.22;;;24.15;;
10473;SDS011;5284;50.446;7.904;2023-03-04T19:30:39;31.75;;;12.27;;
10473;SDS011;5284;50.446;7.904;2023-03-04T19:35:44;25.42;;;13.88;;
10473;SDS011;5284;50.446;7.904;2023-03-04T19:40:48;26.55;;;14.23;;
10473;SDS011;5284;50.446;7.904;2023-03-04T19:45:51;21.45;;;13.57;;
10473;SDS011;5284;50.446;7.904;2023-03-04T19:50:57;25.45;;;14.02;;
10473;SDS011;5284;50.446;7.904;2023-03-04T19:56:00;22.90;;;12.02;;
10473;SDS011;5284;50.446;7.904;2023-03-04T20:01:03;24.02;;;13.63;;
10473;SDS011;5284;50.446;7.904;2023-03-04T20:06:07;34.85;;;15.43;;
10473;SDS011;5284;50.446;7.904;2023-03-04T20:11:11;25.80;;;14.82;;
10473;SDS011;5284;50.446;7.904;2023-03-04T20:16:14;32.65;;;16.15;;
10473;SDS011;5284;50.446;7.904;2023-03-04T20:21:19;41.80;;;16.98;;
10473;SDS011;5284;50.446;7.904;2023-03-04T20:26:21;39.90;;;17.83;;
10473;SDS011;5284;50.446;7.904;2023-03-04T20:31:26;35.63;;;17.55;;
10473;SDS011;5284;50.446;7.904;2023-03-04T20:36:33;36.93;;;17.07;;
10473;SDS011;5284;50.446;7.904;2023-03-04T20:41:36;30.95;;;16.10;;
10473;SDS011;5284;50.446;7.904;2023-03-04T20:46:40;29.70;;;16.33;;
10473;SDS011;5284;50.446;7.904;2023-03-04T20:51:47;28.05;;;15.68;;
10473;SDS011;5284;50.446;7.904;2023-03-04T20:56:50;25.90;;;15.05;;
10473;SDS011;5284;50.446;7.904;2023-03-04T21:01:53;30.70;;;15.82;;
10473;SDS011;5284;50.446;7.904;2023-03-04T21:06:58;34.35;;;14.52;;
10473;SDS011;5284;50.446;7.904;2023-03-04T21:12:01;34.00;;;15.85;;
10473;SDS011;5284;50.446;7.904;2023-03-04T21:17:04;32.88;;;17.27;;
10473;SDS011;5284;50.446;7.904;2023-03-04T21:22:10;47.78;;;15.98;;
10473;SDS011;5284;50.446;7.904;2023-03-04T21:27:16;37.60;;;16.15;;
10473;SDS011;5284;50.446;7.904;2023-03-04T21:32:21;29.88;;;14.35;;
10473;SDS011;5284;50.446;7.904;2023-03-04T21:37:27;25.55;;;14.15;;
10473;SDS011;5284;50.446;7.904;2023-03-04T21:42:30;31.75;;;16.05;;
10473;SDS011;5284;50.446;7.904;2023-03-04T21:47:33;34.38;;;17.00;;
10473;SDS011;5284;50.446;7.904;2023-03-04T21:52:38;32.45;;;15.98;;
10473;SDS011;5284;50.446;7.904;2023-03-04T21:57:40;33.80;;;16.95;;
10473;SDS011;5284;50.446;7.904;2023-03-04T22:02:45;41.88;;;18.23;;
10473;SDS011;5284;50.446;7.904;2023-03-04T22:07:49;38.28;;;17.02;;
10473;SDS011;5284;50.446;7.904;2023-03-04T22:12:52;45.05;;;19.42;;
10473;SDS011;5284;50.446;7.904;2023-03-04T22:17:55;37.08;;;17.50;;
10473;SDS011;5284;50.446;7.904;2023-03-04T22:23:00;53.63;;;19.38;;
10473;SDS011;5284;50.446;7.904;2023-03-04T22:28:03;45.58;;;20.98;;
10473;SDS011;5284;50.446;7.904;2023-03-04T22:33:07;40.50;;;16.02;;
10473;SDS011;5284;50.446;7.904;2023-03-04T22:38:12;36.17;;;16.35;;
10473;SDS011;5284;50.446;7.904;2023-03-04T22:43:14;35.15;;;16.40;;
10473;SDS011;5284;50.446;7.904;2023-03-04T22:48:17;36.00;;;17.80;;
10473;SDS011;5284;50.446;7.904;2023-03-04T22:53:22;43.47;;;18.42;;
10473;SDS011;5284;50.446;7.904;2023-03-04T22:58:26;51.85;;;19.60;;
10473;SDS011;5284;50.446;7.904;2023-03-04T23:03:29;43.75;;;16.85;;
10473;SDS011;5284;50.446;7.904;2023-03-04T23:08:33;43.05;;;18.10;;
10473;SDS011;5284;50.446;7.904;2023-03-04T23:13:38;45.65;;;17.45;;
10473;SDS011;5284;50.446;7.904;2023-03-04T23:18:42;48.00;;;17.50;;
10473;SDS011;5284;50.446;7.904;2023-03-04T23:23:48;60.67;;;21.38;;
10473;SDS011;5284;50.446;7.904;2023-03-04T23:28:51;59.63;;;17.98;;
10473;SDS011;5284;50.446;7.904;2023-03-04T23:33:57;36.90;;;14.40;;
10473;SDS011;5284;50.446;7.904;2023-03-04T23:39:02;43.47;;;15.60;;
10473;SDS011;5284;50.446;7.904;2023-03-04T23:44:06;38.90;;;15.15;;
10473;SDS011;5284;50.446;7.904;2023-03-04T23:49:10;38.88;;;13.48;;
10473;SDS011;5284;50.446;7.904;2023-03-04T23:54:16;31.05;;;11.82;;
10473;SDS011;5284;50.446;7.904;2023-03-04T23:59:19;40.50;;;13.35;;
